sensor_id;sensor_type;location;lat;lon;timestamp;temperature;humidity
14140;DHT22;7150;53.514;9.988;2023-11-19T00:00:34;8.70;99.90
14140;DHT22;7150;53.514;9.988;2023-11-19T00:03:01;8.70;99.90
14140;DHT22;7150;53.514;9.988;2023-11-19T00:05:27;8.70;99.90
14140;DHT22;7150;53.514;9.988;2023-11-19T00:07:53;8.70;99.90
14140;DHT22;7150;53.514;9.988;2023-11-19T00:10:19;8.70;99.90
14140;DHT22;7150;53.514;9.988;2023-11-19T00:12:45;8.70;99.90
14140;DHT22;7150;53.514;9.988;2023-11-19T00:15:12;8.70;99.90
14140;DHT22;7150;53.514;9.988;2023-11-19T00:17:38;8.70;99.90
14140;DHT22;7150;53.514;9.988;2023-11-19T00:20:22;8.70;99.90
14140;DHT22;7150;53.514;9.988;2023-11-19T00:22:48;8.70;99.90
14140;DHT22;7150;53.514;9.988;2023-11-19T00:25:19;8.70;99.90
14140;DHT22;7150;53.514;9.988;2023-11-19T00:27:44;8.70;99.90
14140;DHT22;7150;53.514;9.988;2023-11-19T00:30:10;8.70;99.90
14140;DHT22;7150;53.514;9.988;2023-11-19T00:32:36;8.70;99.90
14140;DHT22;7150;53.514;9.988;2023-11-19T00:35:04;8.70;99.90
14140;DHT22;7150;53.514;9.988;2023-11-19T00:37:29;8.70;99.90
14140;DHT22;7150;53.514;9.988;2023-11-19T00:39:55;8.80;99.90
14140;DHT22;7150;53.514;9.988;2023-11-19T00:42:22;8.80;99.90
14140;DHT22;7150;53.514;9.988;2023-11-19T00:44:47;8.80;99.90
14140;DHT22;7150;53.514;9.988;2023-11-19T00:47:13;8.80;99.90
14140;DHT22;7150;53.514;9.988;2023-11-19T00:49:38;8.80;99.90
14140;DHT22;7150;53.514;9.988;2023-11-19T00:52:04;8.80;99.90
14140;DHT22;7150;53.514;9.988;2023-11-19T00:54:29;8.80;99.90
14140;DHT22;7150;53.514;9.988;2023-11-19T00:56:55;8.80;99.90
14140;DHT22;7150;53.514;9.988;2023-11-19T00:59:20;8.80;99.90
14140;DHT22;7150;53.514;9.988;2023-11-19T01:01:46;8.80;99.90
14140;DHT22;7150;53.514;9.988;2023-11-19T01:04:14;8.80;99.90
14140;DHT22;7150;53.514;9.988;2023-11-19T01:06:40;8.80;99.90
14140;DHT22;7150;53.514;9.988;2023-11-19T01:09:05;8.70;99.90
14140;DHT22;7150;53.514;9.988;2023-11-19T01:11:31;8.80;99.90
14140;DHT22;7150;53.514;9.988;2023-11-19T01:13:56;8.80;99.90
14140;DHT22;7150;53.514;9.988;2023-11-19T01:16:22;8.80;99.90
14140;DHT22;7150;53.514;9.988;2023-11-19T01:18:48;8.80;99.90
14140;DHT22;7150;53.514;9.988;2023-11-19T01:21:14;8.80;99.90
14140;DHT22;7150;53.514;9.988;2023-11-19T01:23:40;8.80;99.90
14140;DHT22;7150;53.514;9.988;2023-11-19T01:26:08;8.80;99.90
14140;DHT22;7150;53.514;9.988;2023-11-19T01:28:35;8.80;99.90
14140;DHT22;7150;53.514;9.988;2023-11-19T01:31:01;8.70;99.90
14140;DHT22;7150;53.514;9.988;2023-11-19T01:33:26;8.80;99.90
14140;DHT22;7150;53.514;9.988;2023-11-19T01:35:53;8.80;99.90
14140;DHT22;7150;53.514;9.988;2023-11-19T01:38:18;8.80;99.90
14140;DHT22;7150;53.514;9.988;2023-11-19T01:40:44;8.80;99.90
14140;DHT22;7150;53.514;9.988;2023-11-19T01:43:09;8.80;99.90
14140;DHT22;7150;53.514;9.988;2023-11-19T01:45:37;8.80;99.90
14140;DHT22;7150;53.514;9.988;2023-11-19T01:48:04;8.80;99.90
14140;DHT22;7150;53.514;9.988;2023-11-19T01:50:30;8.90;99.90
14140;DHT22;7150;53.514;9.988;2023-11-19T01:52:57;8.80;99.90
14140;DHT22;7150;53.514;9.988;2023-11-19T01:55:24;8.80;99.90
14140;DHT22;7150;53.514;9.988;2023-11-19T01:57:51;8.80;99.90
14140;DHT22;7150;53.514;9.988;2023-11-19T02:00:18;8.80;99.90
14140;DHT22;7150;53.514;9.988;2023-11-19T02:02:46;8.90;99.90
14140;DHT22;7150;53.514;9.988;2023-11-19T02:05:12;8.80;99.90
14140;DHT22;7150;53.514;9.988;2023-11-19T02:07:39;8.80;99.90
14140;DHT22;7150;53.514;9.988;2023-11-19T02:10:06;8.80;99.90
14140;DHT22;7150;53.514;9.988;2023-11-19T02:12:38;8.80;99.90
14140;DHT22;7150;53.514;9.988;2023-11-19T02:15:04;8.90;99.90
14140;DHT22;7150;53.514;9.988;2023-11-19T02:17:30;8.80;99.90
14140;DHT22;7150;53.514;9.988;2023-11-19T02:20:04;8.80;99.90
14140;DHT22;7150;53.514;9.988;2023-11-19T02:22:37;8.80;99.90
14140;DHT22;7150;53.514;9.988;2023-11-19T02:25:08;8.90;99.90
14140;DHT22;7150;53.514;9.988;2023-11-19T02:27:53;8.80;99.90
14140;DHT22;7150;53.514;9.988;2023-11-19T02:30:23;8.90;99.90
14140;DHT22;7150;53.514;9.988;2023-11-19T02:32:58;8.90;99.90
14140;DHT22;7150;53.514;9.988;2023-11-19T02:35:27;8.90;99.90
14140;DHT22;7150;53.514;9.988;2023-11-19T02:37:53;8.90;99.90
14140;DHT22;7150;53.514;9.988;2023-11-19T02:40:19;8.90;99.90
14140;DHT22;7150;53.514;9.988;2023-11-19T02:42:45;9.00;99.90
14140;DHT22;7150;53.514;9.988;2023-11-19T02:45:10;9.00;99.90
14140;DHT22;7150;53.514;9.988;2023-11-19T02:47:43;8.90;99.90
14140;DHT22;7150;53.514;9.988;2023-11-19T02:50:11;8.90;99.90
14140;DHT22;7150;53.514;9.988;2023-11-19T02:52:46;9.00;99.90
14140;DHT22;7150;53.514;9.988;2023-11-19T02:55:12;9.00;99.90
14140;DHT22;7150;53.514;9.988;2023-11-19T02:57:41;9.00;99.90
14140;DHT22;7150;53.514;9.988;2023-11-19T03:00:18;9.00;99.90
14140;DHT22;7150;53.514;9.988;2023-11-19T03:02:44;9.00;99.90
14140;DHT22;7150;53.514;9.988;2023-11-19T03:05:15;9.00;99.90
14140;DHT22;7150;53.514;9.988;2023-11-19T03:07:42;9.10;99.90
14140;DHT22;7150;53.514;9.988;2023-11-19T03:10:09;9.00;99.90
14140;DHT22;7150;53.514;9.988;2023-11-19T03:12:38;9.10;99.90
14140;DHT22;7150;53.514;9.988;2023-11-19T03:15:03;9.10;99.90
14140;DHT22;7150;53.514;9.988;2023-11-19T03:17:29;9.10;99.90
14140;DHT22;7150;53.514;9.988;2023-11-19T03:19:54;9.10;99.90
14140;DHT22;7150;53.514;9.988;2023-11-19T03:22:20;9.20;99.90
14140;DHT22;7150;53.514;9.988;2023-11-19T03:24:46;9.20;99.90
14140;DHT22;7150;53.514;9.988;2023-11-19T03:27:11;9.20;99.90
14140;DHT22;7150;53.514;9.988;2023-11-19T03:29:37;9.20;99.90
14140;DHT22;7150;53.514;9.988;2023-11-19T03:32:04;9.20;99.90
14140;DHT22;7150;53.514;9.988;2023-11-19T03:34:30;9.20;99.90
14140;DHT22;7150;53.514;9.988;2023-11-19T03:36:55;9.30;99.90
14140;DHT22;7150;53.514;9.988;2023-11-19T03:39:22;9.30;99.90
14140;DHT22;7150;53.514;9.988;2023-11-19T03:41:50;9.30;99.90
14140;DHT22;7150;53.514;9.988;2023-11-19T03:44:15;9.30;99.90
14140;DHT22;7150;53.514;9.988;2023-11-19T03:46:41;9.30;99.90
14140;DHT22;7150;53.514;9.988;2023-11-19T03:49:07;9.30;99.90
14140;DHT22;7150;53.514;9.988;2023-11-19T03:51:33;9.30;99.90
14140;DHT22;7150;53.514;9.988;2023-11-19T03:54:00;9.30;99.90
14140;DHT22;7150;53.514;9.988;2023-11-19T03:56:26;9.30;99.90
14140;DHT22;7150;53.514;9.988;2023-11-19T03:58:52;9.30;99.90
14140;DHT22;7150;53.514;9.988;2023-11-19T04:01:18;9.30;99.90
14140;DHT22;7150;53.514;9.988;2023-11-19T04:03:43;9.30;99.90
14140;DHT22;7150;53.514;9.988;2023-11-19T04:06:09;9.30;99.90
14140;DHT22;7150;53.514;9.988;2023-11-19T04:08:35;9.30;99.90
14140;DHT22;7150;53.514;9.988;2023-11-19T04:11:02;9.40;99.90
14140;DHT22;7150;53.514;9.988;2023-11-19T04:13:28;9.30;99.90
14140;DHT22;7150;53.514;9.988;2023-11-19T04:15:53;9.30;99.90
14140;DHT22;7150;53.514;9.988;2023-11-19T04:18:19;9.30;99.90
14140;DHT22;7150;53.514;9.988;2023-11-19T04:20:44;9.30;99.90
14140;DHT22;7150;53.514;9.988;2023-11-19T04:23:10;9.30;99.90
14140;DHT22;7150;53.514;9.988;2023-11-19T04:25:36;9.30;99.90
14140;DHT22;7150;53.514;9.988;2023-11-19T04:28:02;9.30;99.90
14140;DHT22;7150;53.514;9.988;2023-11-19T04:30:28;9.30;99.90
14140;DHT22;7150;53.514;9.988;2023-11-19T04:32:53;9.30;99.90
14140;DHT22;7150;53.514;9.988;2023-11-19T04:35:19;9.30;99.90
14140;DHT22;7150;53.514;9.988;2023-11-19T04:37:45;9.30;99.90
14140;DHT22;7150;53.514;9.988;2023-11-19T04:40:11;9.30;99.90
14140;DHT22;7150;53.514;9.988;2023-11-19T04:42:37;9.40;99.90
14140;DHT22;7150;53.514;9.988;2023-11-19T04:45:06;9.40;99.90
14140;DHT22;7150;53.514;9.988;2023-11-19T04:47:32;9.40;99.90
14140;DHT22;7150;53.514;9.988;2023-11-19T04:49:58;9.40;99.90
14140;DHT22;7150;53.514;9.988;2023-11-19T04:52:24;9.40;99.90
14140;DHT22;7150;53.514;9.988;2023-11-19T04:54:49;9.40;99.90
14140;DHT22;7150;53.514;9.988;2023-11-19T04:57:15;9.40;99.90
14140;DHT22;7150;53.514;9.988;2023-11-19T04:59:41;9.40;99.90
14140;DHT22;7150;53.514;9.988;2023-11-19T05:02:07;9.50;99.90
14140;DHT22;7150;53.514;9.988;2023-11-19T05:04:33;9.50;99.90
14140;DHT22;7150;53.514;9.988;2023-11-19T05:06:59;9.50;99.90
14140;DHT22;7150;53.514;9.988;2023-11-19T05:09:24;9.60;99.90
14140;DHT22;7150;53.514;9.988;2023-11-19T05:11:49;9.60;99.90
14140;DHT22;7150;53.514;9.988;2023-11-19T05:14:15;9.70;99.90
14140;DHT22;7150;53.514;9.988;2023-11-19T05:16:41;9.80;99.90
14140;DHT22;7150;53.514;9.988;2023-11-19T05:19:08;9.90;99.90
14140;DHT22;7150;53.514;9.988;2023-11-19T05:21:34;9.90;99.90
14140;DHT22;7150;53.514;9.988;2023-11-19T05:24:01;9.90;99.90
14140;DHT22;7150;53.514;9.988;2023-11-19T05:26:30;10.00;99.90
14140;DHT22;7150;53.514;9.988;2023-11-19T05:28:55;10.00;99.90
14140;DHT22;7150;53.514;9.988;2023-11-19T05:31:21;10.20;99.90
14140;DHT22;7150;53.514;9.988;2023-11-19T05:33:46;10.30;99.90
14140;DHT22;7150;53.514;9.988;2023-11-19T05:36:12;10.50;99.90
14140;DHT22;7150;53.514;9.988;2023-11-19T05:38:38;10.60;99.90
14140;DHT22;7150;53.514;9.988;2023-11-19T05:41:04;10.70;99.90
14140;DHT22;7150;53.514;9.988;2023-11-19T05:43:32;10.80;99.90
14140;DHT22;7150;53.514;9.988;2023-11-19T05:45:58;10.90;99.90
14140;DHT22;7150;53.514;9.988;2023-11-19T05:48:26;11.00;99.90
14140;DHT22;7150;53.514;9.988;2023-11-19T05:50:51;11.10;99.90
14140;DHT22;7150;53.514;9.988;2023-11-19T05:53:17;11.20;99.90
14140;DHT22;7150;53.514;9.988;2023-11-19T05:55:43;11.30;99.90
14140;DHT22;7150;53.514;9.988;2023-11-19T05:58:15;11.30;99.90
14140;DHT22;7150;53.514;9.988;2023-11-19T06:00:41;11.40;99.90
14140;DHT22;7150;53.514;9.988;2023-11-19T06:03:09;11.50;99.90
14140;DHT22;7150;53.514;9.988;2023-11-19T06:05:35;11.50;99.90
14140;DHT22;7150;53.514;9.988;2023-11-19T06:08:00;11.50;99.90
14140;DHT22;7150;53.514;9.988;2023-11-19T06:10:26;11.60;99.90
14140;DHT22;7150;53.514;9.988;2023-11-19T06:12:59;11.60;99.90
14140;DHT22;7150;53.514;9.988;2023-11-19T06:15:26;11.70;99.90
14140;DHT22;7150;53.514;9.988;2023-11-19T06:17:52;11.70;99.90
14140;DHT22;7150;53.514;9.988;2023-11-19T06:20:18;11.70;99.90
14140;DHT22;7150;53.514;9.988;2023-11-19T06:22:45;11.80;99.90
14140;DHT22;7150;53.514;9.988;2023-11-19T06:25:11;11.80;99.90
14140;DHT22;7150;53.514;9.988;2023-11-19T06:27:36;11.90;99.90
14140;DHT22;7150;53.514;9.988;2023-11-19T06:30:02;11.90;99.90
14140;DHT22;7150;53.514;9.988;2023-11-19T06:32:28;12.00;99.90
14140;DHT22;7150;53.514;9.988;2023-11-19T06:34:54;12.00;99.90
14140;DHT22;7150;53.514;9.988;2023-11-19T06:37:20;12.00;99.90
14140;DHT22;7150;53.514;9.988;2023-11-19T06:39:45;12.10;99.90
14140;DHT22;7150;53.514;9.988;2023-11-19T06:42:11;12.10;99.90
14140;DHT22;7150;53.514;9.988;2023-11-19T06:44:36;12.10;99.90
14140;DHT22;7150;53.514;9.988;2023-11-19T06:47:02;12.20;99.90
14140;DHT22;7150;53.514;9.988;2023-11-19T06:49:27;12.20;99.90
14140;DHT22;7150;53.514;9.988;2023-11-19T06:51:53;12.20;99.90
14140;DHT22;7150;53.514;9.988;2023-11-19T06:54:18;12.20;99.90
14140;DHT22;7150;53.514;9.988;2023-11-19T06:56:44;12.30;99.90
14140;DHT22;7150;53.514;9.988;2023-11-19T06:59:09;12.30;99.90
14140;DHT22;7150;53.514;9.988;2023-11-19T07:01:36;12.30;99.90
14140;DHT22;7150;53.514;9.988;2023-11-19T07:04:02;12.30;99.90
14140;DHT22;7150;53.514;9.988;2023-11-19T07:06:33;12.30;99.90
14140;DHT22;7150;53.514;9.988;2023-11-19T07:08:59;12.40;99.90
14140;DHT22;7150;53.514;9.988;2023-11-19T07:11:24;12.40;99.90
14140;DHT22;7150;53.514;9.988;2023-11-19T07:13:50;12.40;99.90
14140;DHT22;7150;53.514;9.988;2023-11-19T07:16:15;12.40;99.90
14140;DHT22;7150;53.514;9.988;2023-11-19T07:18:41;12.40;99.90
14140;DHT22;7150;53.514;9.988;2023-11-19T07:21:09;12.40;99.90
14140;DHT22;7150;53.514;9.988;2023-11-19T07:23:36;12.50;99.90
14140;DHT22;7150;53.514;9.988;2023-11-19T07:26:04;12.50;99.90
14140;DHT22;7150;53.514;9.988;2023-11-19T07:28:29;12.50;99.90
14140;DHT22;7150;53.514;9.988;2023-11-19T07:30:55;12.50;99.90
14140;DHT22;7150;53.514;9.988;2023-11-19T07:33:21;12.50;99.90
14140;DHT22;7150;53.514;9.988;2023-11-19T07:35:47;12.50;99.90
14140;DHT22;7150;53.514;9.988;2023-11-19T07:38:13;12.50;99.90
14140;DHT22;7150;53.514;9.988;2023-11-19T07:40:38;12.50;99.90
14140;DHT22;7150;53.514;9.988;2023-11-19T07:43:04;12.50;99.90
14140;DHT22;7150;53.514;9.988;2023-11-19T07:45:29;12.50;99.90
14140;DHT22;7150;53.514;9.988;2023-11-19T07:47:55;12.50;99.90
14140;DHT22;7150;53.514;9.988;2023-11-19T07:50:20;12.50;99.90
14140;DHT22;7150;53.514;9.988;2023-11-19T07:52:46;12.60;99.90
14140;DHT22;7150;53.514;9.988;2023-11-19T07:55:11;12.60;99.90
14140;DHT22;7150;53.514;9.988;2023-11-19T07:57:37;12.60;99.90
14140;DHT22;7150;53.514;9.988;2023-11-19T08:00:03;12.60;99.90
14140;DHT22;7150;53.514;9.988;2023-11-19T08:02:29;12.60;99.90
14140;DHT22;7150;53.514;9.988;2023-11-19T08:04:54;12.60;99.90
14140;DHT22;7150;53.514;9.988;2023-11-19T08:07:21;12.60;99.90
14140;DHT22;7150;53.514;9.988;2023-11-19T08:09:47;12.60;99.90
14140;DHT22;7150;53.514;9.988;2023-11-19T08:12:13;12.70;99.90
14140;DHT22;7150;53.514;9.988;2023-11-19T08:14:41;12.70;99.90
14140;DHT22;7150;53.514;9.988;2023-11-19T08:17:06;12.70;99.90
14140;DHT22;7150;53.514;9.988;2023-11-19T08:19:32;12.70;99.90
14140;DHT22;7150;53.514;9.988;2023-11-19T08:21:57;12.70;99.90
14140;DHT22;7150;53.514;9.988;2023-11-19T08:24:23;12.70;99.90
14140;DHT22;7150;53.514;9.988;2023-11-19T08:26:48;12.70;99.90
14140;DHT22;7150;53.514;9.988;2023-11-19T08:29:14;12.70;99.90
14140;DHT22;7150;53.514;9.988;2023-11-19T08:31:39;12.70;99.90
14140;DHT22;7150;53.514;9.988;2023-11-19T08:34:05;12.70;99.90
14140;DHT22;7150;53.514;9.988;2023-11-19T08:36:34;12.70;99.90
14140;DHT22;7150;53.514;9.988;2023-11-19T08:39:00;12.70;99.90
14140;DHT22;7150;53.514;9.988;2023-11-19T08:41:25;12.70;99.90
14140;DHT22;7150;53.514;9.988;2023-11-19T08:43:51;12.70;99.90
14140;DHT22;7150;53.514;9.988;2023-11-19T08:46:17;12.70;99.90
14140;DHT22;7150;53.514;9.988;2023-11-19T08:48:43;12.70;99.90
14140;DHT22;7150;53.514;9.988;2023-11-19T08:51:08;12.70;99.90
14140;DHT22;7150;53.514;9.988;2023-11-19T08:53:34;12.70;99.90
14140;DHT22;7150;53.514;9.988;2023-11-19T08:56:00;12.80;99.90
14140;DHT22;7150;53.514;9.988;2023-11-19T08:58:26;12.80;99.90
14140;DHT22;7150;53.514;9.988;2023-11-19T09:00:51;12.80;99.90
14140;DHT22;7150;53.514;9.988;2023-11-19T09:03:19;12.80;99.90
14140;DHT22;7150;53.514;9.988;2023-11-19T09:05:45;12.80;99.90
14140;DHT22;7150;53.514;9.988;2023-11-19T09:08:11;12.90;99.90
14140;DHT22;7150;53.514;9.988;2023-11-19T09:10:37;12.90;99.90
14140;DHT22;7150;53.514;9.988;2023-11-19T09:13:03;12.90;99.90
14140;DHT22;7150;53.514;9.988;2023-11-19T09:15:29;12.90;99.90
14140;DHT22;7150;53.514;9.988;2023-11-19T09:17:54;12.90;99.90
14140;DHT22;7150;53.514;9.988;2023-11-19T09:20:20;12.90;99.90
14140;DHT22;7150;53.514;9.988;2023-11-19T09:22:45;12.90;99.90
14140;DHT22;7150;53.514;9.988;2023-11-19T09:25:11;12.90;99.90
14140;DHT22;7150;53.514;9.988;2023-11-19T09:27:42;12.90;99.90
14140;DHT22;7150;53.514;9.988;2023-11-19T09:30:08;12.90;99.90
14140;DHT22;7150;53.514;9.988;2023-11-19T09:32:33;12.90;99.90
14140;DHT22;7150;53.514;9.988;2023-11-19T09:34:59;13.00;99.90
14140;DHT22;7150;53.514;9.988;2023-11-19T09:37:25;13.00;99.90
14140;DHT22;7150;53.514;9.988;2023-11-19T09:39:51;13.00;99.90
14140;DHT22;7150;53.514;9.988;2023-11-19T09:42:16;13.00;99.90
14140;DHT22;7150;53.514;9.988;2023-11-19T09:44:43;13.00;99.90
14140;DHT22;7150;53.514;9.988;2023-11-19T09:47:10;13.00;99.90
14140;DHT22;7150;53.514;9.988;2023-11-19T09:49:36;13.00;99.90
14140;DHT22;7150;53.514;9.988;2023-11-19T09:52:02;13.00;99.90
14140;DHT22;7150;53.514;9.988;2023-11-19T09:54:28;13.00;99.90
14140;DHT22;7150;53.514;9.988;2023-11-19T09:56:55;13.00;99.90
14140;DHT22;7150;53.514;9.988;2023-11-19T09:59:25;13.00;99.90
14140;DHT22;7150;53.514;9.988;2023-11-19T10:01:51;13.00;99.90
14140;DHT22;7150;53.514;9.988;2023-11-19T10:04:17;13.00;99.90
14140;DHT22;7150;53.514;9.988;2023-11-19T10:06:44;13.00;99.90
14140;DHT22;7150;53.514;9.988;2023-11-19T10:09:11;13.00;99.90
14140;DHT22;7150;53.514;9.988;2023-11-19T10:11:37;13.00;99.90
14140;DHT22;7150;53.514;9.988;2023-11-19T10:14:02;13.00;99.90
14140;DHT22;7150;53.514;9.988;2023-11-19T10:16:29;13.00;99.90
14140;DHT22;7150;53.514;9.988;2023-11-19T10:18:55;13.00;99.90
14140;DHT22;7150;53.514;9.988;2023-11-19T10:21:21;13.00;99.90
14140;DHT22;7150;53.514;9.988;2023-11-19T10:23:51;13.10;99.90
14140;DHT22;7150;53.514;9.988;2023-11-19T10:26:18;13.10;99.90
14140;DHT22;7150;53.514;9.988;2023-11-19T10:28:46;13.10;99.90
14140;DHT22;7150;53.514;9.988;2023-11-19T10:31:15;13.10;99.90
14140;DHT22;7150;53.514;9.988;2023-11-19T10:33:42;13.10;99.90
14140;DHT22;7150;53.514;9.988;2023-11-19T10:36:10;13.10;99.90
14140;DHT22;7150;53.514;9.988;2023-11-19T10:38:37;13.10;99.90
14140;DHT22;7150;53.514;9.988;2023-11-19T10:41:03;13.10;99.90
14140;DHT22;7150;53.514;9.988;2023-11-19T10:43:30;13.10;99.90
14140;DHT22;7150;53.514;9.988;2023-11-19T10:46:09;13.10;99.90
14140;DHT22;7150;53.514;9.988;2023-11-19T10:48:35;13.10;99.90
14140;DHT22;7150;53.514;9.988;2023-11-19T10:51:02;13.10;99.90
14140;DHT22;7150;53.514;9.988;2023-11-19T10:53:30;13.10;99.90
14140;DHT22;7150;53.514;9.988;2023-11-19T10:55:58;13.10;99.90
14140;DHT22;7150;53.514;9.988;2023-11-19T10:58:25;13.10;99.90
14140;DHT22;7150;53.514;9.988;2023-11-19T11:00:55;13.10;99.90
14140;DHT22;7150;53.514;9.988;2023-11-19T11:03:23;13.10;99.90
14140;DHT22;7150;53.514;9.988;2023-11-19T11:05:51;13.10;99.90
14140;DHT22;7150;53.514;9.988;2023-11-19T11:08:17;13.10;99.90
14140;DHT22;7150;53.514;9.988;2023-11-19T11:10:45;13.10;99.90
14140;DHT22;7150;53.514;9.988;2023-11-19T11:13:11;13.10;99.90
14140;DHT22;7150;53.514;9.988;2023-11-19T11:15:38;13.10;99.90
14140;DHT22;7150;53.514;9.988;2023-11-19T11:18:06;13.10;99.90
14140;DHT22;7150;53.514;9.988;2023-11-19T11:20:33;13.10;99.90
14140;DHT22;7150;53.514;9.988;2023-11-19T11:34:34;13.00;99.90
14140;DHT22;7150;53.514;9.988;2023-11-19T11:37:28;12.90;99.90
14140;DHT22;7150;53.514;9.988;2023-11-19T11:39:57;13.00;99.90
14140;DHT22;7150;53.514;9.988;2023-11-19T11:45:02;13.00;99.90
14140;DHT22;7150;53.514;9.988;2023-11-19T11:50:17;13.00;99.90
14140;DHT22;7150;53.514;9.988;2023-11-19T11:55:51;13.10;99.90
14140;DHT22;7150;53.514;9.988;2023-11-19T11:58:21;13.10;99.90
14140;DHT22;7150;53.514;9.988;2023-11-19T12:00:51;13.20;99.90
14140;DHT22;7150;53.514;9.988;2023-11-19T12:03:20;13.20;99.90
14140;DHT22;7150;53.514;9.988;2023-11-19T12:05:47;13.20;99.90
14140;DHT22;7150;53.514;9.988;2023-11-19T12:08:18;13.20;99.90
14140;DHT22;7150;53.514;9.988;2023-11-19T12:10:47;13.30;99.90
14140;DHT22;7150;53.514;9.988;2023-11-19T12:13:14;13.30;99.90
14140;DHT22;7150;53.514;9.988;2023-11-19T12:18:30;13.30;99.90
14140;DHT22;7150;53.514;9.988;2023-11-19T12:21:00;13.30;99.90
14140;DHT22;7150;53.514;9.988;2023-11-19T12:23:28;13.30;99.90
14140;DHT22;7150;53.514;9.988;2023-11-19T12:25:54;13.30;99.90
14140;DHT22;7150;53.514;9.988;2023-11-19T12:28:20;13.30;99.90
14140;DHT22;7150;53.514;9.988;2023-11-19T12:30:46;13.30;99.90
14140;DHT22;7150;53.514;9.988;2023-11-19T12:33:14;13.30;99.90
14140;DHT22;7150;53.514;9.988;2023-11-19T12:35:44;13.20;99.90
14140;DHT22;7150;53.514;9.988;2023-11-19T12:38:21;13.20;99.90
14140;DHT22;7150;53.514;9.988;2023-11-19T12:40:47;13.30;99.90
14140;DHT22;7150;53.514;9.988;2023-11-19T12:43:21;13.30;99.90
14140;DHT22;7150;53.514;9.988;2023-11-19T12:45:48;13.30;99.90
14140;DHT22;7150;53.514;9.988;2023-11-19T12:48:13;13.30;99.90
14140;DHT22;7150;53.514;9.988;2023-11-19T12:50:58;13.30;99.90
14140;DHT22;7150;53.514;9.988;2023-11-19T12:53:26;13.30;99.90
14140;DHT22;7150;53.514;9.988;2023-11-19T12:55:52;13.30;99.90
14140;DHT22;7150;53.514;9.988;2023-11-19T12:58:33;13.30;99.90
14140;DHT22;7150;53.514;9.988;2023-11-19T13:01:04;13.30;99.90
14140;DHT22;7150;53.514;9.988;2023-11-19T13:03:31;13.30;99.90
14140;DHT22;7150;53.514;9.988;2023-11-19T13:06:08;13.30;99.90
14140;DHT22;7150;53.514;9.988;2023-11-19T13:08:44;13.30;99.90
14140;DHT22;7150;53.514;9.988;2023-11-19T13:11:11;13.40;99.90
14140;DHT22;7150;53.514;9.988;2023-11-19T13:14:09;13.40;99.90
14140;DHT22;7150;53.514;9.988;2023-11-19T13:16:37;13.40;99.90
14140;DHT22;7150;53.514;9.988;2023-11-19T13:19:03;13.40;99.90
14140;DHT22;7150;53.514;9.988;2023-11-19T13:21:29;13.40;99.90
14140;DHT22;7150;53.514;9.988;2023-11-19T13:23:55;13.40;99.90
14140;DHT22;7150;53.514;9.988;2023-11-19T13:26:21;13.50;99.90
14140;DHT22;7150;53.514;9.988;2023-11-19T13:28:47;13.50;99.90
14140;DHT22;7150;53.514;9.988;2023-11-19T13:31:13;13.50;99.90
14140;DHT22;7150;53.514;9.988;2023-11-19T13:33:38;13.50;99.90
14140;DHT22;7150;53.514;9.988;2023-11-19T13:36:04;13.50;99.90
14140;DHT22;7150;53.514;9.988;2023-11-19T13:38:36;13.50;99.90
14140;DHT22;7150;53.514;9.988;2023-11-19T13:41:02;13.50;99.90
14140;DHT22;7150;53.514;9.988;2023-11-19T13:43:29;13.50;99.90
14140;DHT22;7150;53.514;9.988;2023-11-19T13:45:55;13.50;99.90
14140;DHT22;7150;53.514;9.988;2023-11-19T13:48:21;13.50;99.90
14140;DHT22;7150;53.514;9.988;2023-11-19T13:50:47;13.50;99.90
14140;DHT22;7150;53.514;9.988;2023-11-19T13:53:12;13.50;99.90
14140;DHT22;7150;53.514;9.988;2023-11-19T13:55:38;13.50;99.90
14140;DHT22;7150;53.514;9.988;2023-11-19T13:58:03;13.50;99.90
14140;DHT22;7150;53.514;9.988;2023-11-19T14:00:30;13.50;99.90
14140;DHT22;7150;53.514;9.988;2023-11-19T14:02:55;13.60;99.90
14140;DHT22;7150;53.514;9.988;2023-11-19T14:05:21;13.60;99.90
14140;DHT22;7150;53.514;9.988;2023-11-19T14:07:46;13.60;99.90
14140;DHT22;7150;53.514;9.988;2023-11-19T14:10:14;13.60;99.90
14140;DHT22;7150;53.514;9.988;2023-11-19T14:12:40;13.50;99.90
14140;DHT22;7150;53.514;9.988;2023-11-19T14:15:07;13.60;99.90
14140;DHT22;7150;53.514;9.988;2023-11-19T14:17:33;13.60;99.90
14140;DHT22;7150;53.514;9.988;2023-11-19T14:19:59;13.60;99.90
14140;DHT22;7150;53.514;9.988;2023-11-19T14:22:25;13.60;99.90
14140;DHT22;7150;53.514;9.988;2023-11-19T14:24:51;13.50;99.90
14140;DHT22;7150;53.514;9.988;2023-11-19T14:27:16;13.50;99.90
14140;DHT22;7150;53.514;9.988;2023-11-19T14:29:45;13.50;99.90
14140;DHT22;7150;53.514;9.988;2023-11-19T14:32:10;13.50;99.90
14140;DHT22;7150;53.514;9.988;2023-11-19T14:34:36;13.40;99.90
14140;DHT22;7150;53.514;9.988;2023-11-19T14:37:02;13.40;99.90
14140;DHT22;7150;53.514;9.988;2023-11-19T14:39:27;13.30;99.90
14140;DHT22;7150;53.514;9.988;2023-11-19T14:41:54;13.30;99.90
14140;DHT22;7150;53.514;9.988;2023-11-19T14:44:23;13.30;99.90
14140;DHT22;7150;53.514;9.988;2023-11-19T14:46:49;13.30;99.90
14140;DHT22;7150;53.514;9.988;2023-11-19T14:49:15;13.30;99.90
14140;DHT22;7150;53.514;9.988;2023-11-19T14:51:40;13.30;99.90
14140;DHT22;7150;53.514;9.988;2023-11-19T14:54:06;13.30;99.90
14140;DHT22;7150;53.514;9.988;2023-11-19T14:56:32;13.20;99.90
14140;DHT22;7150;53.514;9.988;2023-11-19T14:58:57;13.20;99.90
14140;DHT22;7150;53.514;9.988;2023-11-19T15:01:24;13.20;99.90
14140;DHT22;7150;53.514;9.988;2023-11-19T15:03:50;13.20;99.90
14140;DHT22;7150;53.514;9.988;2023-11-19T15:06:15;13.30;99.90
14140;DHT22;7150;53.514;9.988;2023-11-19T15:08:41;13.20;99.90
14140;DHT22;7150;53.514;9.988;2023-11-19T15:11:07;13.20;99.90
14140;DHT22;7150;53.514;9.988;2023-11-19T15:13:37;13.20;99.90
14140;DHT22;7150;53.514;9.988;2023-11-19T15:16:03;13.20;99.90
14140;DHT22;7150;53.514;9.988;2023-11-19T15:18:31;13.10;99.90
14140;DHT22;7150;53.514;9.988;2023-11-19T15:20:56;13.10;99.90
14140;DHT22;7150;53.514;9.988;2023-11-19T15:23:22;13.10;99.90
14140;DHT22;7150;53.514;9.988;2023-11-19T15:25:47;12.50;99.90
14140;DHT22;7150;53.514;9.988;2023-11-19T15:28:14;13.10;99.90
14140;DHT22;7150;53.514;9.988;2023-11-19T15:30:40;13.10;99.90
14140;DHT22;7150;53.514;9.988;2023-11-19T15:33:05;13.00;99.90
14140;DHT22;7150;53.514;9.988;2023-11-19T15:35:31;13.00;99.90
14140;DHT22;7150;53.514;9.988;2023-11-19T15:37:56;13.00;99.90
14140;DHT22;7150;53.514;9.988;2023-11-19T15:40:22;13.00;99.90
14140;DHT22;7150;53.514;9.988;2023-11-19T15:42:48;13.00;99.90
14140;DHT22;7150;53.514;9.988;2023-11-19T15:45:13;13.00;99.90
14140;DHT22;7150;53.514;9.988;2023-11-19T15:47:39;13.10;99.90
14140;DHT22;7150;53.514;9.988;2023-11-19T15:50:05;13.00;99.90
14140;DHT22;7150;53.514;9.988;2023-11-19T15:52:32;13.00;99.90
14140;DHT22;7150;53.514;9.988;2023-11-19T15:54:58;13.00;99.90
14140;DHT22;7150;53.514;9.988;2023-11-19T15:57:23;13.00;99.90
14140;DHT22;7150;53.514;9.988;2023-11-19T15:59:49;13.00;99.90
14140;DHT22;7150;53.514;9.988;2023-11-19T16:02:16;13.00;99.90
14140;DHT22;7150;53.514;9.988;2023-11-19T16:04:42;12.90;99.90
14140;DHT22;7150;53.514;9.988;2023-11-19T16:07:12;12.90;99.90
14140;DHT22;7150;53.514;9.988;2023-11-19T16:09:38;12.90;99.90
14140;DHT22;7150;53.514;9.988;2023-11-19T16:12:04;12.90;99.90